createdAt,value
2019-04-06T00:09:08.912Z,92975.02
2019-04-06T00:24:41.821Z,92972.94
2019-04-06T00:40:16.134Z,92967.65
2019-04-06T00:55:55.408Z,92960.80
2019-04-06T01:11:25.000Z,92956.86
2019-04-06T01:26:57.968Z,92960.53
2019-04-06T01:42:31.111Z,92959.08
2019-04-06T01:58:05.140Z,92952.35
2019-04-06T02:13:38.875Z,92939.59
2019-04-06T02:29:12.397Z,92937.45
2019-04-06T02:44:46.573Z,92933.42
2019-04-06T03:00:20.822Z,92937.17
2019-04-06T03:15:53.803Z,92939.55
2019-04-06T03:31:28.021Z,92943.11
2019-04-06T03:47:02.024Z,92958.09
2019-04-06T04:02:35.437Z,92967.50
2019-04-06T04:18:08.581Z,92966.41
2019-04-06T04:33:41.790Z,92991.39
2019-04-06T04:49:15.388Z,93013.64
2019-04-06T05:04:48.398Z,93002.50
2019-04-06T05:20:23.954Z,93014.23
2019-04-06T05:35:56.958Z,93016.30
2019-04-06T05:51:30.141Z,93010.59
2019-04-06T06:07:02.961Z,93008.71
2019-04-06T06:22:36.234Z,93011.68
2019-04-06T06:38:09.202Z,93004.97
2019-04-06T06:53:42.352Z,93021.25
2019-04-06T07:09:15.284Z,93014.77
2019-04-06T07:24:48.437Z,93011.48
2019-04-06T07:40:21.359Z,93012.91
2019-04-06T07:55:54.819Z,93016.06
2019-04-06T08:11:28.089Z,93020.17
2019-04-06T08:27:01.560Z,93016.64
2019-04-06T08:42:34.741Z,93024.06
2019-04-06T08:58:07.827Z,93020.11
2019-04-06T09:13:41.219Z,92998.55
2019-04-06T09:29:22.987Z,93003.73
2019-04-06T10:01:09.358Z,93000.39
2019-04-06T10:16:45.711Z,92989.83
2019-04-06T10:32:24.756Z,92966.11
2019-04-06T10:47:59.882Z,92959.45
2019-04-06T11:03:36.894Z,92934.36
2019-04-06T11:35:25.271Z,92923.99
2019-04-06T12:23:37.321Z,92858.03
2019-04-06T12:39:26.430Z,92851.98
2019-04-06T12:55:05.815Z,92829.48
2019-04-06T13:27:00.949Z,92814.33
2019-04-06T13:42:40.311Z,92806.16
2019-04-06T13:58:17.230Z,92807.97
2019-04-06T14:13:57.473Z,92804.40
2019-04-06T14:29:52.955Z,92806.37
2019-04-06T14:45:32.221Z,92805.16
2019-04-06T15:01:08.510Z,92816.05
2019-04-06T15:16:45.294Z,92808.47
2019-04-06T15:32:22.497Z,92804.50
2019-04-06T15:48:13.044Z,92817.91
2019-04-06T16:03:55.263Z,92833.69
2019-04-06T16:19:39.524Z,92854.75
2019-04-06T16:51:32.777Z,92870.11
2019-04-06T17:07:12.042Z,92878.31
2019-04-06T17:22:47.768Z,92905.00
2019-04-06T17:38:25.162Z,92936.72
2019-04-06T17:54:17.592Z,92936.87
2019-04-06T18:10:09.298Z,92949.02
2019-04-06T18:25:42.441Z,92950.14
2019-04-06T18:41:15.888Z,92958.39
2019-04-06T18:56:48.752Z,92963.79
2019-04-06T19:12:21.907Z,92958.03
2019-04-06T19:27:55.148Z,92949.98
2019-04-06T19:43:29.643Z,92934.41
2019-04-06T19:59:03.261Z,92905.55
2019-04-06T20:14:36.762Z,92922.53
2019-04-06T20:30:09.740Z,92927.92
2019-04-06T20:45:43.738Z,92921.66
2019-04-06T21:01:16.898Z,92942.03
2019-04-06T21:16:50.502Z,92933.77
2019-04-06T21:32:23.114Z,92933.54
2019-04-06T21:47:56.451Z,92926.02
2019-04-06T22:03:29.318Z,92943.15
2019-04-06T22:19:03.005Z,92921.13
2019-04-06T22:34:40.223Z,92917.79
2019-04-06T22:50:12.533Z,92900.88
2019-04-06T23:05:47.956Z,92911.91
2019-04-06T23:21:21.387Z,92904.16
2019-04-06T23:36:55.771Z,92896.28
2019-04-06T23:52:29.690Z,92887.48
